sensor_id;sensor_type;location;lat;lon;timestamp;P1;durP1;ratioP1;P2;durP2;ratioP2
69854;SDS011;57146;48.140;16.304;2023-06-10T00:01:12;3.00;;;0.80;;
69854;SDS011;57146;48.140;16.304;2023-06-10T00:03:39;3.83;;;0.95;;
69854;SDS011;57146;48.140;16.304;2023-06-10T00:06:06;3.38;;;0.90;;
69854;SDS011;57146;48.140;16.304;2023-06-10T00:08:33;3.58;;;0.90;;
69854;SDS011;57146;48.140;16.304;2023-06-10T00:11:00;3.50;;;0.93;;
69854;SDS011;57146;48.140;16.304;2023-06-10T00:13:27;3.90;;;0.98;;
69854;SDS011;57146;48.140;16.304;2023-06-10T00:15:54;3.15;;;0.73;;
69854;SDS011;57146;48.140;16.304;2023-06-10T00:18:21;3.55;;;0.90;;
69854;SDS011;57146;48.140;16.304;2023-06-10T00:20:48;5.15;;;0.88;;
69854;SDS011;57146;48.140;16.304;2023-06-10T00:23:15;3.13;;;0.70;;
69854;SDS011;57146;48.140;16.304;2023-06-10T00:25:42;3.25;;;0.80;;
69854;SDS011;57146;48.140;16.304;2023-06-10T00:28:09;4.05;;;1.10;;
69854;SDS011;57146;48.140;16.304;2023-06-10T00:30:36;3.72;;;0.75;;
69854;SDS011;57146;48.140;16.304;2023-06-10T00:33:03;3.72;;;0.95;;
69854;SDS011;57146;48.140;16.304;2023-06-10T00:35:30;3.60;;;0.90;;
69854;SDS011;57146;48.140;16.304;2023-06-10T00:37:59;3.63;;;1.08;;
69854;SDS011;57146;48.140;16.304;2023-06-10T00:40:25;3.47;;;0.90;;
69854;SDS011;57146;48.140;16.304;2023-06-10T00:42:52;4.43;;;0.93;;
69854;SDS011;57146;48.140;16.304;2023-06-10T00:45:20;3.97;;;1.13;;
69854;SDS011;57146;48.140;16.304;2023-06-10T00:47:47;3.47;;;0.82;;
69854;SDS011;57146;48.140;16.304;2023-06-10T00:50:14;3.78;;;1.20;;
69854;SDS011;57146;48.140;16.304;2023-06-10T00:52:41;3.55;;;1.00;;
69854;SDS011;57146;48.140;16.304;2023-06-10T00:55:08;3.53;;;1.00;;
69854;SDS011;57146;48.140;16.304;2023-06-10T00:57:36;2.72;;;0.70;;
69854;SDS011;57146;48.140;16.304;2023-06-10T01:00:03;3.80;;;1.20;;
69854;SDS011;57146;48.140;16.304;2023-06-10T01:02:32;3.85;;;0.80;;
69854;SDS011;57146;48.140;16.304;2023-06-10T01:04:59;3.78;;;1.02;;
69854;SDS011;57146;48.140;16.304;2023-06-10T01:10:16;4.05;;;1.00;;
69854;SDS011;57146;48.140;16.304;2023-06-10T01:13:00;4.82;;;1.00;;
69854;SDS011;57146;48.140;16.304;2023-06-10T01:15:32;3.95;;;0.80;;
69854;SDS011;57146;48.140;16.304;2023-06-10T01:18:05;4.15;;;0.98;;
69854;SDS011;57146;48.140;16.304;2023-06-10T01:20:34;5.80;;;1.00;;
69854;SDS011;57146;48.140;16.304;2023-06-10T01:23:03;3.83;;;0.90;;
69854;SDS011;57146;48.140;16.304;2023-06-10T01:25:30;3.60;;;0.98;;
69854;SDS011;57146;48.140;16.304;2023-06-10T01:28:07;3.83;;;1.10;;
69854;SDS011;57146;48.140;16.304;2023-06-10T01:33:31;4.70;;;1.30;;
69854;SDS011;57146;48.140;16.304;2023-06-10T01:36:03;4.85;;;1.00;;
69854;SDS011;57146;48.140;16.304;2023-06-10T01:38:30;3.78;;;1.17;;
69854;SDS011;57146;48.140;16.304;2023-06-10T01:41:03;3.60;;;1.10;;
69854;SDS011;57146;48.140;16.304;2023-06-10T01:43:32;3.50;;;0.90;;
69854;SDS011;57146;48.140;16.304;2023-06-10T01:46:00;4.18;;;1.00;;
69854;SDS011;57146;48.140;16.304;2023-06-10T01:48:29;5.23;;;1.40;;
69854;SDS011;57146;48.140;16.304;2023-06-10T01:50:55;3.95;;;1.10;;
69854;SDS011;57146;48.140;16.304;2023-06-10T01:53:22;4.78;;;1.45;;
69854;SDS011;57146;48.140;16.304;2023-06-10T01:55:49;3.70;;;1.25;;
69854;SDS011;57146;48.140;16.304;2023-06-10T01:58:16;5.32;;;1.30;;
69854;SDS011;57146;48.140;16.304;2023-06-10T02:00:43;4.23;;;1.33;;
69854;SDS011;57146;48.140;16.304;2023-06-10T02:03:10;4.18;;;1.30;;
69854;SDS011;57146;48.140;16.304;2023-06-10T02:05:37;5.55;;;1.70;;
69854;SDS011;57146;48.140;16.304;2023-06-10T02:08:04;5.45;;;1.70;;
69854;SDS011;57146;48.140;16.304;2023-06-10T02:10:31;4.60;;;1.50;;
69854;SDS011;57146;48.140;16.304;2023-06-10T02:12:59;5.27;;;1.90;;
69854;SDS011;57146;48.140;16.304;2023-06-10T02:15:30;5.47;;;1.85;;
69854;SDS011;57146;48.140;16.304;2023-06-10T02:17:57;5.20;;;1.90;;
69854;SDS011;57146;48.140;16.304;2023-06-10T02:20:24;6.47;;;2.00;;
69854;SDS011;57146;48.140;16.304;2023-06-10T02:22:51;5.45;;;1.90;;
69854;SDS011;57146;48.140;16.304;2023-06-10T02:25:18;6.97;;;1.70;;
69854;SDS011;57146;48.140;16.304;2023-06-10T02:27:45;7.82;;;2.00;;
69854;SDS011;57146;48.140;16.304;2023-06-10T02:30:12;6.40;;;2.17;;
69854;SDS011;57146;48.140;16.304;2023-06-10T02:32:39;5.80;;;2.20;;
69854;SDS011;57146;48.140;16.304;2023-06-10T02:35:06;5.28;;;1.70;;
69854;SDS011;57146;48.140;16.304;2023-06-10T02:37:34;6.63;;;2.20;;
69854;SDS011;57146;48.140;16.304;2023-06-10T02:40:01;5.88;;;2.13;;
69854;SDS011;57146;48.140;16.304;2023-06-10T02:42:28;5.43;;;2.22;;
69854;SDS011;57146;48.140;16.304;2023-06-10T02:44:55;5.50;;;2.25;;
69854;SDS011;57146;48.140;16.304;2023-06-10T02:47:34;6.40;;;2.33;;
69854;SDS011;57146;48.140;16.304;2023-06-10T02:50:01;7.95;;;2.90;;
69854;SDS011;57146;48.140;16.304;2023-06-10T02:52:30;6.18;;;2.78;;
69854;SDS011;57146;48.140;16.304;2023-06-10T02:54:57;6.07;;;2.72;;
69854;SDS011;57146;48.140;16.304;2023-06-10T02:57:24;8.45;;;3.03;;
69854;SDS011;57146;48.140;16.304;2023-06-10T02:59:51;6.88;;;2.85;;
69854;SDS011;57146;48.140;16.304;2023-06-10T03:02:18;5.90;;;2.40;;
69854;SDS011;57146;48.140;16.304;2023-06-10T03:04:49;6.78;;;2.60;;
69854;SDS011;57146;48.140;16.304;2023-06-10T03:07:17;5.90;;;2.63;;
69854;SDS011;57146;48.140;16.304;2023-06-10T03:09:46;6.32;;;2.75;;
69854;SDS011;57146;48.140;16.304;2023-06-10T03:12:14;7.50;;;3.13;;
69854;SDS011;57146;48.140;16.304;2023-06-10T03:14:44;8.98;;;3.10;;
69854;SDS011;57146;48.140;16.304;2023-06-10T03:17:11;7.25;;;2.90;;
69854;SDS011;57146;48.140;16.304;2023-06-10T03:19:41;9.65;;;3.38;;
69854;SDS011;57146;48.140;16.304;2023-06-10T03:22:09;8.77;;;3.65;;
69854;SDS011;57146;48.140;16.304;2023-06-10T03:24:49;7.57;;;3.60;;
69854;SDS011;57146;48.140;16.304;2023-06-10T03:27:18;9.45;;;3.75;;
69854;SDS011;57146;48.140;16.304;2023-06-10T03:29:49;7.13;;;3.35;;
69854;SDS011;57146;48.140;16.304;2023-06-10T03:32:17;7.45;;;3.08;;
69854;SDS011;57146;48.140;16.304;2023-06-10T03:34:44;7.40;;;3.08;;
69854;SDS011;57146;48.140;16.304;2023-06-10T03:37:12;7.47;;;3.42;;
69854;SDS011;57146;48.140;16.304;2023-06-10T03:39:40;8.07;;;3.28;;
69854;SDS011;57146;48.140;16.304;2023-06-10T03:42:08;7.40;;;3.08;;
69854;SDS011;57146;48.140;16.304;2023-06-10T03:44:35;7.78;;;3.53;;
69854;SDS011;57146;48.140;16.304;2023-06-10T03:47:02;8.57;;;3.35;;
69854;SDS011;57146;48.140;16.304;2023-06-10T03:49:30;7.25;;;3.45;;
69854;SDS011;57146;48.140;16.304;2023-06-10T03:52:00;7.88;;;3.38;;
69854;SDS011;57146;48.140;16.304;2023-06-10T03:54:28;7.20;;;3.35;;
69854;SDS011;57146;48.140;16.304;2023-06-10T03:56:55;7.93;;;3.75;;
69854;SDS011;57146;48.140;16.304;2023-06-10T03:59:22;7.30;;;3.50;;
69854;SDS011;57146;48.140;16.304;2023-06-10T04:01:49;11.23;;;4.07;;
69854;SDS011;57146;48.140;16.304;2023-06-10T04:04:16;8.52;;;3.83;;
69854;SDS011;57146;48.140;16.304;2023-06-10T04:06:44;7.47;;;3.63;;
69854;SDS011;57146;48.140;16.304;2023-06-10T04:09:11;8.95;;;3.83;;
69854;SDS011;57146;48.140;16.304;2023-06-10T04:11:39;8.45;;;3.88;;
69854;SDS011;57146;48.140;16.304;2023-06-10T04:14:06;9.18;;;4.13;;
69854;SDS011;57146;48.140;16.304;2023-06-10T04:16:35;9.10;;;4.15;;
69854;SDS011;57146;48.140;16.304;2023-06-10T04:19:02;8.98;;;4.25;;
69854;SDS011;57146;48.140;16.304;2023-06-10T04:21:29;9.23;;;4.20;;
69854;SDS011;57146;48.140;16.304;2023-06-10T04:23:56;9.77;;;4.68;;
69854;SDS011;57146;48.140;16.304;2023-06-10T04:26:23;10.02;;;4.75;;
69854;SDS011;57146;48.140;16.304;2023-06-10T04:28:51;11.07;;;4.93;;
69854;SDS011;57146;48.140;16.304;2023-06-10T04:31:18;11.93;;;5.07;;
69854;SDS011;57146;48.140;16.304;2023-06-10T04:33:46;9.82;;;4.68;;
69854;SDS011;57146;48.140;16.304;2023-06-10T04:36:14;12.95;;;4.55;;
69854;SDS011;57146;48.140;16.304;2023-06-10T04:38:41;11.38;;;4.63;;
69854;SDS011;57146;48.140;16.304;2023-06-10T04:41:08;11.70;;;4.93;;
69854;SDS011;57146;48.140;16.304;2023-06-10T04:43:36;9.35;;;4.75;;
69854;SDS011;57146;48.140;16.304;2023-06-10T04:46:04;11.88;;;5.55;;
69854;SDS011;57146;48.140;16.304;2023-06-10T04:48:35;11.88;;;5.70;;
69854;SDS011;57146;48.140;16.304;2023-06-10T04:51:03;12.07;;;5.82;;
69854;SDS011;57146;48.140;16.304;2023-06-10T04:53:31;10.75;;;5.35;;
69854;SDS011;57146;48.140;16.304;2023-06-10T04:55:58;13.02;;;5.40;;
69854;SDS011;57146;48.140;16.304;2023-06-10T04:58:25;13.32;;;5.97;;
69854;SDS011;57146;48.140;16.304;2023-06-10T05:00:52;11.98;;;5.97;;
69854;SDS011;57146;48.140;16.304;2023-06-10T05:03:18;12.65;;;6.13;;
69854;SDS011;57146;48.140;16.304;2023-06-10T05:05:45;13.52;;;6.05;;
69854;SDS011;57146;48.140;16.304;2023-06-10T05:08:12;11.20;;;5.32;;
69854;SDS011;57146;48.140;16.304;2023-06-10T05:10:39;13.00;;;6.22;;
69854;SDS011;57146;48.140;16.304;2023-06-10T05:13:06;12.13;;;5.57;;
69854;SDS011;57146;48.140;16.304;2023-06-10T05:15:33;13.25;;;6.10;;
69854;SDS011;57146;48.140;16.304;2023-06-10T05:18:00;16.92;;;6.32;;
69854;SDS011;57146;48.140;16.304;2023-06-10T05:20:27;11.65;;;6.07;;
69854;SDS011;57146;48.140;16.304;2023-06-10T05:22:55;14.40;;;6.72;;
69854;SDS011;57146;48.140;16.304;2023-06-10T05:25:21;14.23;;;6.20;;
69854;SDS011;57146;48.140;16.304;2023-06-10T05:27:48;12.88;;;6.18;;
69854;SDS011;57146;48.140;16.304;2023-06-10T05:30:15;12.07;;;6.25;;
69854;SDS011;57146;48.140;16.304;2023-06-10T05:32:42;12.00;;;5.88;;
69854;SDS011;57146;48.140;16.304;2023-06-10T05:35:09;14.25;;;6.80;;
69854;SDS011;57146;48.140;16.304;2023-06-10T05:37:36;13.18;;;6.60;;
69854;SDS011;57146;48.140;16.304;2023-06-10T05:40:03;16.00;;;6.80;;
69854;SDS011;57146;48.140;16.304;2023-06-10T05:42:31;13.52;;;6.57;;
69854;SDS011;57146;48.140;16.304;2023-06-10T05:44:58;12.85;;;6.30;;
69854;SDS011;57146;48.140;16.304;2023-06-10T05:47:24;13.07;;;6.05;;
69854;SDS011;57146;48.140;16.304;2023-06-10T05:49:51;15.00;;;6.57;;
69854;SDS011;57146;48.140;16.304;2023-06-10T05:52:18;15.13;;;6.78;;
69854;SDS011;57146;48.140;16.304;2023-06-10T05:54:45;14.30;;;6.85;;
69854;SDS011;57146;48.140;16.304;2023-06-10T05:57:12;13.35;;;6.90;;
69854;SDS011;57146;48.140;16.304;2023-06-10T05:59:39;12.90;;;6.13;;
69854;SDS011;57146;48.140;16.304;2023-06-10T06:02:06;12.52;;;6.40;;
69854;SDS011;57146;48.140;16.304;2023-06-10T06:04:33;13.35;;;6.15;;
69854;SDS011;57146;48.140;16.304;2023-06-10T06:07:01;13.77;;;6.50;;
69854;SDS011;57146;48.140;16.304;2023-06-10T06:09:27;11.93;;;5.97;;
69854;SDS011;57146;48.140;16.304;2023-06-10T06:11:54;12.27;;;6.32;;
69854;SDS011;57146;48.140;16.304;2023-06-10T06:14:21;13.18;;;6.82;;
69854;SDS011;57146;48.140;16.304;2023-06-10T06:16:48;14.45;;;6.65;;
69854;SDS011;57146;48.140;16.304;2023-06-10T06:19:15;20.42;;;7.53;;
69854;SDS011;57146;48.140;16.304;2023-06-10T06:21:42;13.75;;;6.43;;
69854;SDS011;57146;48.140;16.304;2023-06-10T06:24:09;13.82;;;6.63;;
69854;SDS011;57146;48.140;16.304;2023-06-10T06:26:36;13.18;;;6.60;;
69854;SDS011;57146;48.140;16.304;2023-06-10T06:29:03;18.90;;;7.32;;
69854;SDS011;57146;48.140;16.304;2023-06-10T06:31:30;14.95;;;7.47;;
69854;SDS011;57146;48.140;16.304;2023-06-10T06:33:58;14.40;;;6.50;;
69854;SDS011;57146;48.140;16.304;2023-06-10T06:36:25;14.52;;;7.00;;
69854;SDS011;57146;48.140;16.304;2023-06-10T06:38:51;16.70;;;7.78;;
69854;SDS011;57146;48.140;16.304;2023-06-10T06:41:21;17.63;;;8.15;;
69854;SDS011;57146;48.140;16.304;2023-06-10T06:43:47;15.35;;;7.20;;
69854;SDS011;57146;48.140;16.304;2023-06-10T06:46:22;15.40;;;6.75;;
69854;SDS011;57146;48.140;16.304;2023-06-10T06:48:49;16.55;;;7.65;;
69854;SDS011;57146;48.140;16.304;2023-06-10T06:51:17;16.63;;;7.43;;
69854;SDS011;57146;48.140;16.304;2023-06-10T06:53:43;17.38;;;7.82;;
69854;SDS011;57146;48.140;16.304;2023-06-10T06:56:13;21.10;;;8.48;;
69854;SDS011;57146;48.140;16.304;2023-06-10T06:58:40;18.92;;;8.32;;
69854;SDS011;57146;48.140;16.304;2023-06-10T07:01:08;18.13;;;8.30;;
69854;SDS011;57146;48.140;16.304;2023-06-10T07:03:35;20.55;;;8.70;;
69854;SDS011;57146;48.140;16.304;2023-06-10T07:06:01;17.27;;;7.95;;
69854;SDS011;57146;48.140;16.304;2023-06-10T07:08:28;17.90;;;8.05;;
69854;SDS011;57146;48.140;16.304;2023-06-10T07:10:55;18.50;;;7.97;;
69854;SDS011;57146;48.140;16.304;2023-06-10T07:13:22;19.15;;;9.02;;
69854;SDS011;57146;48.140;16.304;2023-06-10T07:15:49;17.58;;;8.23;;
69854;SDS011;57146;48.140;16.304;2023-06-10T07:18:16;18.60;;;8.10;;
69854;SDS011;57146;48.140;16.304;2023-06-10T07:20:43;21.17;;;9.15;;
69854;SDS011;57146;48.140;16.304;2023-06-10T07:23:10;24.65;;;9.23;;
69854;SDS011;57146;48.140;16.304;2023-06-10T07:25:37;20.27;;;9.00;;
69854;SDS011;57146;48.140;16.304;2023-06-10T07:28:04;18.80;;;8.73;;
69854;SDS011;57146;48.140;16.304;2023-06-10T07:30:30;18.70;;;8.52;;
69854;SDS011;57146;48.140;16.304;2023-06-10T07:32:57;18.42;;;8.27;;
69854;SDS011;57146;48.140;16.304;2023-06-10T07:35:24;18.92;;;8.85;;
69854;SDS011;57146;48.140;16.304;2023-06-10T07:37:51;18.05;;;8.70;;
69854;SDS011;57146;48.140;16.304;2023-06-10T07:40:18;18.05;;;8.63;;
69854;SDS011;57146;48.140;16.304;2023-06-10T07:42:45;18.80;;;8.65;;
69854;SDS011;57146;48.140;16.304;2023-06-10T07:45:12;16.13;;;7.72;;
69854;SDS011;57146;48.140;16.304;2023-06-10T07:47:39;17.75;;;8.23;;
69854;SDS011;57146;48.140;16.304;2023-06-10T07:50:06;16.95;;;8.25;;
69854;SDS011;57146;48.140;16.304;2023-06-10T07:52:33;18.75;;;8.57;;
69854;SDS011;57146;48.140;16.304;2023-06-10T07:55:00;17.20;;;7.93;;
69854;SDS011;57146;48.140;16.304;2023-06-10T07:57:27;16.27;;;8.02;;
69854;SDS011;57146;48.140;16.304;2023-06-10T07:59:53;15.50;;;7.50;;
69854;SDS011;57146;48.140;16.304;2023-06-10T08:02:20;15.82;;;7.50;;
69854;SDS011;57146;48.140;16.304;2023-06-10T08:04:52;16.00;;;7.78;;
69854;SDS011;57146;48.140;16.304;2023-06-10T08:07:18;18.60;;;8.07;;
69854;SDS011;57146;48.140;16.304;2023-06-10T08:09:45;17.23;;;8.02;;
69854;SDS011;57146;48.140;16.304;2023-06-10T08:12:13;17.92;;;7.78;;
69854;SDS011;57146;48.140;16.304;2023-06-10T08:14:43;16.15;;;7.57;;
69854;SDS011;57146;48.140;16.304;2023-06-10T08:17:10;14.43;;;7.28;;
69854;SDS011;57146;48.140;16.304;2023-06-10T08:19:37;18.15;;;7.80;;
69854;SDS011;57146;48.140;16.304;2023-06-10T08:22:04;18.05;;;7.95;;
69854;SDS011;57146;48.140;16.304;2023-06-10T08:24:31;25.55;;;8.40;;
69854;SDS011;57146;48.140;16.304;2023-06-10T08:26:58;18.20;;;8.52;;
69854;SDS011;57146;48.140;16.304;2023-06-10T08:29:25;15.55;;;8.13;;
69854;SDS011;57146;48.140;16.304;2023-06-10T08:31:51;17.30;;;8.15;;
69854;SDS011;57146;48.140;16.304;2023-06-10T08:34:18;15.57;;;7.70;;
69854;SDS011;57146;48.140;16.304;2023-06-10T08:36:45;15.20;;;7.70;;
69854;SDS011;57146;48.140;16.304;2023-06-10T08:39:12;16.58;;;8.32;;
69854;SDS011;57146;48.140;16.304;2023-06-10T08:41:42;15.45;;;7.43;;
69854;SDS011;57146;48.140;16.304;2023-06-10T08:44:16;15.45;;;7.20;;
69854;SDS011;57146;48.140;16.304;2023-06-10T08:46:48;18.70;;;7.78;;
69854;SDS011;57146;48.140;16.304;2023-06-10T08:49:18;15.70;;;7.15;;
69854;SDS011;57146;48.140;16.304;2023-06-10T08:51:45;16.80;;;7.65;;
69854;SDS011;57146;48.140;16.304;2023-06-10T08:54:24;16.27;;;7.95;;
69854;SDS011;57146;48.140;16.304;2023-06-10T08:56:53;20.77;;;7.60;;
69854;SDS011;57146;48.140;16.304;2023-06-10T08:59:23;16.48;;;6.90;;
69854;SDS011;57146;48.140;16.304;2023-06-10T09:01:52;16.80;;;7.97;;
69854;SDS011;57146;48.140;16.304;2023-06-10T09:04:20;13.75;;;6.68;;
69854;SDS011;57146;48.140;16.304;2023-06-10T09:06:48;13.63;;;7.03;;
69854;SDS011;57146;48.140;16.304;2023-06-10T09:09:16;14.10;;;7.43;;
69854;SDS011;57146;48.140;16.304;2023-06-10T09:11:44;14.00;;;6.30;;
69854;SDS011;57146;48.140;16.304;2023-06-10T09:14:11;12.30;;;6.35;;
69854;SDS011;57146;48.140;16.304;2023-06-10T09:16:38;14.50;;;6.70;;
69854;SDS011;57146;48.140;16.304;2023-06-10T09:19:07;13.15;;;6.63;;
69854;SDS011;57146;48.140;16.304;2023-06-10T09:21:34;13.68;;;6.15;;
69854;SDS011;57146;48.140;16.304;2023-06-10T09:24:01;12.55;;;6.47;;
69854;SDS011;57146;48.140;16.304;2023-06-10T09:26:29;11.77;;;6.20;;
69854;SDS011;57146;48.140;16.304;2023-06-10T09:29:07;11.32;;;5.95;;
69854;SDS011;57146;48.140;16.304;2023-06-10T09:31:35;11.65;;;6.07;;
69854;SDS011;57146;48.140;16.304;2023-06-10T09:34:09;11.43;;;5.80;;
69854;SDS011;57146;48.140;16.304;2023-06-10T09:36:37;13.93;;;6.53;;
69854;SDS011;57146;48.140;16.304;2023-06-10T09:39:05;13.15;;;6.20;;
69854;SDS011;57146;48.140;16.304;2023-06-10T09:41:41;11.48;;;5.80;;
69854;SDS011;57146;48.140;16.304;2023-06-10T09:44:15;10.60;;;6.15;;
69854;SDS011;57146;48.140;16.304;2023-06-10T09:46:45;10.88;;;5.90;;
69854;SDS011;57146;48.140;16.304;2023-06-10T09:49:13;11.38;;;6.30;;
69854;SDS011;57146;48.140;16.304;2023-06-10T09:51:53;10.80;;;6.03;;
69854;SDS011;57146;48.140;16.304;2023-06-10T09:54:22;13.57;;;5.88;;
69854;SDS011;57146;48.140;16.304;2023-06-10T09:56:49;12.95;;;5.90;;
69854;SDS011;57146;48.140;16.304;2023-06-10T09:59:28;11.20;;;6.05;;
69854;SDS011;57146;48.140;16.304;2023-06-10T10:01:56;10.00;;;5.45;;
69854;SDS011;57146;48.140;16.304;2023-06-10T10:04:23;12.48;;;6.18;;
69854;SDS011;57146;48.140;16.304;2023-06-10T10:06:55;11.35;;;5.85;;
69854;SDS011;57146;48.140;16.304;2023-06-10T10:09:22;10.70;;;5.63;;
69854;SDS011;57146;48.140;16.304;2023-06-10T10:11:49;12.15;;;6.30;;
69854;SDS011;57146;48.140;16.304;2023-06-10T10:14:17;10.68;;;5.68;;
69854;SDS011;57146;48.140;16.304;2023-06-10T10:16:46;11.13;;;5.40;;
69854;SDS011;57146;48.140;16.304;2023-06-10T10:19:19;11.38;;;5.93;;
69854;SDS011;57146;48.140;16.304;2023-06-10T10:21:51;10.27;;;5.40;;
69854;SDS011;57146;48.140;16.304;2023-06-10T10:24:20;10.52;;;5.53;;
69854;SDS011;57146;48.140;16.304;2023-06-10T10:26:50;8.98;;;4.85;;
69854;SDS011;57146;48.140;16.304;2023-06-10T10:29:24;10.68;;;5.63;;
69854;SDS011;57146;48.140;16.304;2023-06-10T10:31:58;9.50;;;5.25;;
69854;SDS011;57146;48.140;16.304;2023-06-10T10:34:32;9.50;;;5.22;;
69854;SDS011;57146;48.140;16.304;2023-06-10T10:37:11;9.95;;;5.20;;
69854;SDS011;57146;48.140;16.304;2023-06-10T10:39:38;10.00;;;5.10;;
69854;SDS011;57146;48.140;16.304;2023-06-10T10:42:05;8.82;;;5.10;;
69854;SDS011;57146;48.140;16.304;2023-06-10T10:44:33;10.23;;;5.28;;
69854;SDS011;57146;48.140;16.304;2023-06-10T10:47:02;12.43;;;6.35;;
69854;SDS011;57146;48.140;16.304;2023-06-10T10:49:30;12.18;;;5.78;;
69854;SDS011;57146;48.140;16.304;2023-06-10T10:51:59;11.43;;;6.18;;
69854;SDS011;57146;48.140;16.304;2023-06-10T10:54:28;10.38;;;6.03;;
69854;SDS011;57146;48.140;16.304;2023-06-10T11:02:19;11.10;;;5.65;;
69854;SDS011;57146;48.140;16.304;2023-06-10T11:04:58;9.48;;;5.43;;
69854;SDS011;57146;48.140;16.304;2023-06-10T11:07:36;12.68;;;6.20;;
69854;SDS011;57146;48.140;16.304;2023-06-10T11:10:08;9.00;;;5.22;;
69854;SDS011;57146;48.140;16.304;2023-06-10T11:15:12;10.35;;;5.40;;
69854;SDS011;57146;48.140;16.304;2023-06-10T11:28:42;9.32;;;4.75;;
69854;SDS011;57146;48.140;16.304;2023-06-10T11:31:29;8.82;;;4.55;;
69854;SDS011;57146;48.140;16.304;2023-06-10T11:34:03;11.02;;;4.90;;
69854;SDS011;57146;48.140;16.304;2023-06-10T11:36:38;9.25;;;4.75;;
69854;SDS011;57146;48.140;16.304;2023-06-10T11:39:09;9.98;;;4.90;;
69854;SDS011;57146;48.140;16.304;2023-06-10T11:41:37;9.07;;;4.90;;
69854;SDS011;57146;48.140;16.304;2023-06-10T11:44:09;8.90;;;5.57;;
69854;SDS011;57146;48.140;16.304;2023-06-10T11:46:37;9.18;;;4.93;;
69854;SDS011;57146;48.140;16.304;2023-06-10T11:49:05;9.05;;;4.90;;
69854;SDS011;57146;48.140;16.304;2023-06-10T11:51:36;10.52;;;5.00;;
69854;SDS011;57146;48.140;16.304;2023-06-10T11:54:05;9.93;;;4.90;;
69854;SDS011;57146;48.140;16.304;2023-06-10T11:56:35;8.82;;;4.95;;
69854;SDS011;57146;48.140;16.304;2023-06-10T11:59:03;8.93;;;5.00;;
69854;SDS011;57146;48.140;16.304;2023-06-10T12:01:32;9.32;;;4.53;;
69854;SDS011;57146;48.140;16.304;2023-06-10T12:04:01;21.42;;;5.32;;
69854;SDS011;57146;48.140;16.304;2023-06-10T12:09:23;10.38;;;5.70;;
69854;SDS011;57146;48.140;16.304;2023-06-10T12:20:03;9.02;;;4.90;;
69854;SDS011;57146;48.140;16.304;2023-06-10T12:22:38;8.27;;;4.40;;
69854;SDS011;57146;48.140;16.304;2023-06-10T12:25:06;9.57;;;4.43;;
69854;SDS011;57146;48.140;16.304;2023-06-10T12:27:35;9.70;;;4.60;;
69854;SDS011;57146;48.140;16.304;2023-06-10T12:30:04;8.30;;;4.60;;
69854;SDS011;57146;48.140;16.304;2023-06-10T12:32:36;8.85;;;4.05;;
69854;SDS011;57146;48.140;16.304;2023-06-10T12:35:11;8.45;;;4.88;;
69854;SDS011;57146;48.140;16.304;2023-06-10T12:37:40;9.88;;;5.25;;
69854;SDS011;57146;48.140;16.304;2023-06-10T12:40:09;9.10;;;4.50;;
69854;SDS011;57146;48.140;16.304;2023-06-10T12:42:37;8.73;;;4.57;;
69854;SDS011;57146;48.140;16.304;2023-06-10T12:45:04;9.43;;;4.72;;
69854;SDS011;57146;48.140;16.304;2023-06-10T12:47:33;10.73;;;4.43;;
69854;SDS011;57146;48.140;16.304;2023-06-10T12:50:02;8.68;;;4.32;;
69854;SDS011;57146;48.140;16.304;2023-06-10T12:52:29;8.52;;;3.75;;
69854;SDS011;57146;48.140;16.304;2023-06-10T12:54:56;8.40;;;4.20;;
69854;SDS011;57146;48.140;16.304;2023-06-10T12:57:23;8.57;;;4.47;;
69854;SDS011;57146;48.140;16.304;2023-06-10T12:59:51;10.05;;;4.28;;
69854;SDS011;57146;48.140;16.304;2023-06-10T13:02:21;8.85;;;4.68;;
69854;SDS011;57146;48.140;16.304;2023-06-10T13:04:48;8.02;;;4.65;;
69854;SDS011;57146;48.140;16.304;2023-06-10T13:07:16;9.50;;;4.78;;
69854;SDS011;57146;48.140;16.304;2023-06-10T13:09:45;14.95;;;6.07;;
69854;SDS011;57146;48.140;16.304;2023-06-10T13:12:12;14.45;;;6.30;;
69854;SDS011;57146;48.140;16.304;2023-06-10T13:14:42;14.57;;;6.22;;
69854;SDS011;57146;48.140;16.304;2023-06-10T13:17:09;15.88;;;6.10;;
69854;SDS011;57146;48.140;16.304;2023-06-10T13:19:37;11.50;;;6.05;;
69854;SDS011;57146;48.140;16.304;2023-06-10T13:22:03;12.30;;;6.88;;
69854;SDS011;57146;48.140;16.304;2023-06-10T13:24:30;15.35;;;6.63;;
69854;SDS011;57146;48.140;16.304;2023-06-10T13:26:58;10.18;;;5.82;;
69854;SDS011;57146;48.140;16.304;2023-06-10T13:29:24;12.20;;;6.82;;
69854;SDS011;57146;48.140;16.304;2023-06-10T13:31:51;12.10;;;6.50;;
69854;SDS011;57146;48.140;16.304;2023-06-10T13:34:18;12.38;;;6.55;;
69854;SDS011;57146;48.140;16.304;2023-06-10T13:36:45;13.90;;;6.20;;
69854;SDS011;57146;48.140;16.304;2023-06-10T13:39:12;10.75;;;6.15;;
69854;SDS011;57146;48.140;16.304;2023-06-10T13:41:39;9.70;;;5.75;;
69854;SDS011;57146;48.140;16.304;2023-06-10T13:44:07;9.38;;;4.95;;
69854;SDS011;57146;48.140;16.304;2023-06-10T13:46:34;9.90;;;5.40;;
69854;SDS011;57146;48.140;16.304;2023-06-10T13:49:01;12.15;;;5.70;;
69854;SDS011;57146;48.140;16.304;2023-06-10T13:51:28;11.75;;;5.95;;
69854;SDS011;57146;48.140;16.304;2023-06-10T13:53:54;11.48;;;6.50;;
69854;SDS011;57146;48.140;16.304;2023-06-10T13:56:21;11.02;;;5.95;;
69854;SDS011;57146;48.140;16.304;2023-06-10T13:58:48;11.52;;;6.43;;
69854;SDS011;57146;48.140;16.304;2023-06-10T14:01:15;14.35;;;6.18;;
69854;SDS011;57146;48.140;16.304;2023-06-10T14:03:42;11.25;;;5.65;;
69854;SDS011;57146;48.140;16.304;2023-06-10T14:06:09;11.10;;;5.65;;
69854;SDS011;57146;48.140;16.304;2023-06-10T14:08:36;9.15;;;5.18;;
69854;SDS011;57146;48.140;16.304;2023-06-10T14:11:03;9.50;;;5.25;;
69854;SDS011;57146;48.140;16.304;2023-06-10T14:13:30;11.93;;;6.15;;
69854;SDS011;57146;48.140;16.304;2023-06-10T14:15:57;11.05;;;5.80;;
69854;SDS011;57146;48.140;16.304;2023-06-10T14:18:24;11.18;;;6.60;;
69854;SDS011;57146;48.140;16.304;2023-06-10T14:20:50;12.38;;;6.07;;
69854;SDS011;57146;48.140;16.304;2023-06-10T14:23:17;10.00;;;5.70;;
69854;SDS011;57146;48.140;16.304;2023-06-10T14:25:44;10.13;;;5.45;;
69854;SDS011;57146;48.140;16.304;2023-06-10T14:28:15;11.32;;;5.93;;
69854;SDS011;57146;48.140;16.304;2023-06-10T14:30:42;10.73;;;6.10;;
69854;SDS011;57146;48.140;16.304;2023-06-10T14:33:09;11.73;;;6.75;;
69854;SDS011;57146;48.140;16.304;2023-06-10T14:35:36;11.75;;;6.20;;
69854;SDS011;57146;48.140;16.304;2023-06-10T14:38:03;11.63;;;6.22;;
69854;SDS011;57146;48.140;16.304;2023-06-10T14:40:33;11.35;;;6.55;;
69854;SDS011;57146;48.140;16.304;2023-06-10T14:43:00;12.55;;;6.57;;
69854;SDS011;57146;48.140;16.304;2023-06-10T14:45:28;10.18;;;5.90;;
69854;SDS011;57146;48.140;16.304;2023-06-10T14:47:55;12.15;;;6.55;;
69854;SDS011;57146;48.140;16.304;2023-06-10T14:50:22;12.50;;;6.72;;
69854;SDS011;57146;48.140;16.304;2023-06-10T14:52:49;12.50;;;6.78;;
69854;SDS011;57146;48.140;16.304;2023-06-10T14:55:16;12.18;;;5.97;;
69854;SDS011;57146;48.140;16.304;2023-06-10T14:57:42;12.30;;;6.63;;
69854;SDS011;57146;48.140;16.304;2023-06-10T15:00:11;12.30;;;6.43;;
69854;SDS011;57146;48.140;16.304;2023-06-10T15:02:38;11.73;;;6.15;;
69854;SDS011;57146;48.140;16.304;2023-06-10T15:05:30;12.07;;;6.35;;
69854;SDS011;57146;48.140;16.304;2023-06-10T15:07:57;12.13;;;6.78;;